createdAt,value
2023-03-26T00:00:00.868Z,0.00
2023-03-26T00:01:00.858Z,0.00
2023-03-26T00:02:00.988Z,0.00
2023-03-26T00:03:00.877Z,0.00
2023-03-26T00:04:00.849Z,0.00
2023-03-26T00:05:00.802Z,0.00
2023-03-26T00:06:00.837Z,0.00
2023-03-26T00:07:00.816Z,0.00
2023-03-26T00:08:00.798Z,0.00
2023-03-26T00:09:00.788Z,0.00
2023-03-26T00:10:00.797Z,0.00
2023-03-26T00:11:01.249Z,0.00
2023-03-26T00:12:01.784Z,0.00
2023-03-26T00:13:00.778Z,0.00
2023-03-26T00:14:00.786Z,0.00
2023-03-26T00:15:00.756Z,0.00
2023-03-26T00:16:00.771Z,0.00
2023-03-26T00:17:00.768Z,0.00
2023-03-26T00:18:00.832Z,0.00
2023-03-26T00:19:00.754Z,0.00
2023-03-26T00:20:00.733Z,0.00
2023-03-26T00:21:00.719Z,0.00
2023-03-26T00:22:00.744Z,0.00
2023-03-26T00:23:00.692Z,0.00
2023-03-26T00:24:00.710Z,0.00
2023-03-26T00:25:00.713Z,0.00
2023-03-26T00:26:00.691Z,0.00
2023-03-26T00:27:00.708Z,0.00
2023-03-26T00:28:00.711Z,0.00
2023-03-26T00:29:00.765Z,0.00
2023-03-26T00:30:00.682Z,0.00
2023-03-26T00:31:00.718Z,0.00
2023-03-26T00:32:00.650Z,0.00
2023-03-26T00:33:00.684Z,0.00
2023-03-26T00:34:00.674Z,0.00
2023-03-26T00:35:00.653Z,0.00
2023-03-26T00:36:02.571Z,0.00
2023-03-26T00:37:00.651Z,0.00
2023-03-26T00:38:00.618Z,0.00
2023-03-26T00:39:00.611Z,0.00
2023-03-26T00:40:00.928Z,0.00
2023-03-26T00:41:00.616Z,0.00
2023-03-26T00:42:00.622Z,0.00
2023-03-26T00:43:00.590Z,0.00
2023-03-26T00:44:00.619Z,0.00
2023-03-26T00:45:00.634Z,0.00
2023-03-26T00:46:00.655Z,0.00
2023-03-26T00:47:00.572Z,0.00
2023-03-26T00:48:02.841Z,0.00
2023-03-26T00:49:01.581Z,0.00
2023-03-26T00:50:00.545Z,0.00
2023-03-26T00:51:00.592Z,0.00
2023-03-26T00:52:00.567Z,0.00
2023-03-26T00:53:00.556Z,0.00
2023-03-26T00:54:00.559Z,0.00
2023-03-26T00:55:00.558Z,0.00
2023-03-26T00:56:00.626Z,0.00
2023-03-26T00:57:00.530Z,0.00
2023-03-26T00:58:00.520Z,0.00
2023-03-26T00:59:00.520Z,0.00
2023-03-26T01:00:00.533Z,0.00
2023-03-26T01:01:00.507Z,0.00
2023-03-26T01:02:00.564Z,0.00
2023-03-26T01:03:00.593Z,0.00
2023-03-26T01:04:07.584Z,0.00
2023-03-26T01:05:02.530Z,0.00
2023-03-26T01:06:00.448Z,0.00
2023-03-26T01:07:00.456Z,0.00
2023-03-26T01:08:00.479Z,0.00
2023-03-26T01:09:00.552Z,0.00
2023-03-26T01:10:00.431Z,0.00
2023-03-26T01:11:00.438Z,0.00
2023-03-26T01:12:01.436Z,0.00
2023-03-26T01:13:00.435Z,0.00
2023-03-26T01:14:00.428Z,0.00
2023-03-26T01:15:00.418Z,0.00
2023-03-26T01:16:00.440Z,0.00
2023-03-26T01:17:00.414Z,0.00
2023-03-26T01:18:00.442Z,0.00
2023-03-26T01:19:00.383Z,0.00
2023-03-26T01:20:00.411Z,0.00
2023-03-26T01:21:00.371Z,0.00
2023-03-26T01:22:00.369Z,0.00
2023-03-26T01:23:00.419Z,0.00
2023-03-26T01:24:00.363Z,0.00
2023-03-26T01:25:00.359Z,0.00
2023-03-26T01:26:00.356Z,0.00
2023-03-26T01:27:00.355Z,0.00
2023-03-26T01:28:00.361Z,0.00
2023-03-26T01:29:00.356Z,0.00
2023-03-26T01:30:00.312Z,0.00
2023-03-26T01:31:00.308Z,0.00
2023-03-26T01:32:00.314Z,0.00
2023-03-26T01:33:00.375Z,0.00
2023-03-26T01:34:00.286Z,0.00
2023-03-26T01:35:00.303Z,0.00
2023-03-26T01:36:00.344Z,0.00
2023-03-26T01:37:00.282Z,0.00
2023-03-26T01:38:00.310Z,0.00
2023-03-26T01:39:00.543Z,0.00
2023-03-26T01:40:00.307Z,0.00
2023-03-26T01:41:00.280Z,0.00
2023-03-26T01:42:00.243Z,0.00
2023-03-26T01:43:00.247Z,0.00
2023-03-26T01:44:00.350Z,0.00
2023-03-26T01:45:00.240Z,0.00
2023-03-26T01:46:00.223Z,0.00
2023-03-26T01:47:00.262Z,0.00
2023-03-26T01:48:00.263Z,0.00
2023-03-26T01:49:00.211Z,0.00
2023-03-26T01:50:00.218Z,0.00
2023-03-26T01:51:00.214Z,0.00
2023-03-26T01:52:00.180Z,0.00
2023-03-26T01:53:00.215Z,0.00
2023-03-26T01:54:00.210Z,0.00
2023-03-26T01:55:00.182Z,0.00
2023-03-26T01:56:00.214Z,0.00
2023-03-26T01:57:00.328Z,0.00
2023-03-26T01:58:00.155Z,0.00
2023-03-26T01:59:00.158Z,0.00
2023-03-26T02:00:00.176Z,0.00
2023-03-26T02:01:00.433Z,0.00
2023-03-26T02:02:00.258Z,0.00
2023-03-26T02:03:00.222Z,0.00
2023-03-26T02:04:00.132Z,0.00
2023-03-26T02:05:00.153Z,0.00
2023-03-26T02:06:00.146Z,0.00
2023-03-26T02:07:00.105Z,0.00
2023-03-26T02:08:00.102Z,0.00
2023-03-26T02:09:00.108Z,0.00
2023-03-26T02:10:00.160Z,0.00
2023-03-26T02:11:00.113Z,0.00
2023-03-26T02:12:00.113Z,0.00
2023-03-26T02:13:00.069Z,0.00
2023-03-26T02:14:00.055Z,0.00
2023-03-26T02:15:00.041Z,0.00
2023-03-26T02:16:00.114Z,0.00
2023-03-26T02:17:00.036Z,0.00
2023-03-26T02:18:00.140Z,0.00
2023-03-26T02:19:00.024Z,0.00
2023-03-26T02:20:00.031Z,0.00
2023-03-26T02:21:00.031Z,0.00
2023-03-26T02:22:00.068Z,0.00
2023-03-26T02:22:59.999Z,0.00
2023-03-26T02:23:59.992Z,0.00
2023-03-26T02:24:59.981Z,0.00
2023-03-26T02:26:00.140Z,0.00
2023-03-26T02:26:59.974Z,0.00
2023-03-26T02:27:59.969Z,0.00
2023-03-26T02:28:59.955Z,0.00
2023-03-26T02:29:59.960Z,0.00
2023-03-26T02:30:59.962Z,0.00
2023-03-26T02:32:00.055Z,0.00
2023-03-26T02:33:00.969Z,0.00
2023-03-26T02:33:59.937Z,0.00
2023-03-26T02:34:59.993Z,0.00
2023-03-26T02:36:00.022Z,0.00
2023-03-26T02:36:59.922Z,0.00
2023-03-26T02:37:59.933Z,0.00
2023-03-26T02:38:59.890Z,0.00
2023-03-26T02:39:59.895Z,0.00
2023-03-26T02:40:59.900Z,0.00
2023-03-26T02:41:59.891Z,0.00
2023-03-26T02:42:59.883Z,0.00
2023-03-26T02:43:59.866Z,0.00
2023-03-26T02:44:59.877Z,0.00
2023-03-26T02:45:59.944Z,0.00
2023-03-26T02:46:59.840Z,0.00
2023-03-26T02:47:59.922Z,0.00
2023-03-26T02:48:59.857Z,0.00
2023-03-26T02:49:59.837Z,0.00
2023-03-26T02:50:59.822Z,0.00
2023-03-26T02:51:59.814Z,0.00
2023-03-26T02:52:59.814Z,0.00
2023-03-26T02:53:59.822Z,0.00
2023-03-26T02:54:59.820Z,0.00
2023-03-26T02:55:59.792Z,0.00
2023-03-26T02:56:59.793Z,0.00
2023-03-26T02:57:59.804Z,0.00
2023-03-26T02:58:59.814Z,0.00
2023-03-26T02:59:59.776Z,0.00
2023-03-26T03:00:59.794Z,0.00
2023-03-26T03:01:59.825Z,0.00
2023-03-26T03:02:59.830Z,0.00
2023-03-26T03:03:59.813Z,0.00
2023-03-26T03:04:59.738Z,0.00
2023-03-26T03:05:59.758Z,0.00
2023-03-26T03:06:59.783Z,0.00
2023-03-26T03:07:59.727Z,0.00
2023-03-26T03:08:59.743Z,0.00
2023-03-26T03:09:59.731Z,0.00
2023-03-26T03:10:59.723Z,0.00
2023-03-26T03:11:59.718Z,0.00
2023-03-26T03:12:59.737Z,0.00
2023-03-26T03:13:59.696Z,0.00
2023-03-26T03:14:59.688Z,0.00
2023-03-26T03:15:59.675Z,0.00
2023-03-26T03:16:59.694Z,0.00
2023-03-26T03:17:59.723Z,0.00
2023-03-26T03:18:59.681Z,0.00
2023-03-26T03:19:59.735Z,0.00
2023-03-26T03:20:59.645Z,0.00
2023-03-26T03:21:59.647Z,0.00
2023-03-26T03:22:59.664Z,0.00
2023-03-26T03:24:00.134Z,0.00
2023-03-26T03:24:59.636Z,0.00
2023-03-26T03:25:59.736Z,0.00
2023-03-26T03:26:59.635Z,0.00
2023-03-26T03:27:59.612Z,0.00
2023-03-26T03:28:59.670Z,0.00
2023-03-26T03:29:59.608Z,0.00
2023-03-26T03:30:59.627Z,0.00
2023-03-26T03:31:59.629Z,0.00
2023-03-26T03:32:59.613Z,0.00
2023-03-26T03:33:59.575Z,0.00
2023-03-26T03:34:59.602Z,0.00
2023-03-26T03:35:59.610Z,0.00
2023-03-26T03:36:59.577Z,0.00
2023-03-26T03:37:59.558Z,0.00
2023-03-26T03:38:59.541Z,0.00
2023-03-26T03:39:59.549Z,0.00
2023-03-26T03:40:59.528Z,0.00
2023-03-26T03:41:59.553Z,0.00
2023-03-26T03:42:59.551Z,0.00
2023-03-26T03:43:59.515Z,0.00
2023-03-26T03:44:59.550Z,0.00
2023-03-26T03:45:59.515Z,0.00
2023-03-26T03:46:59.501Z,0.00
2023-03-26T03:47:59.520Z,0.00
2023-03-26T03:48:59.517Z,0.00
2023-03-26T03:49:59.471Z,0.00
2023-03-26T03:50:59.496Z,0.00
2023-03-26T03:51:59.458Z,0.00
2023-03-26T03:52:59.473Z,0.00
2023-03-26T03:53:59.472Z,0.00
2023-03-26T03:54:59.453Z,0.00
2023-03-26T03:55:59.450Z,0.00
2023-03-26T03:56:59.552Z,0.00
2023-03-26T03:57:59.450Z,0.00
2023-03-26T03:58:59.428Z,0.00
2023-03-26T03:59:59.463Z,0.00
2023-03-26T04:00:59.413Z,0.00
2023-03-26T04:01:59.430Z,0.00
2023-03-26T04:02:59.465Z,0.00
2023-03-26T04:03:59.547Z,0.00
2023-03-26T04:04:59.401Z,0.00
2023-03-26T04:05:59.400Z,0.00
2023-03-26T04:06:59.376Z,0.00
2023-03-26T04:07:59.369Z,0.00
2023-03-26T04:08:59.421Z,0.00
2023-03-26T04:09:59.359Z,0.00
2023-03-26T04:10:59.351Z,0.00
2023-03-26T04:11:59.360Z,0.00
2023-03-26T04:12:59.345Z,0.00
2023-03-26T04:13:59.341Z,0.00
2023-03-26T04:14:59.334Z,0.00
2023-03-26T04:15:59.549Z,0.00
2023-03-26T04:16:59.329Z,0.00
2023-03-26T04:17:59.316Z,0.00
2023-03-26T04:18:59.329Z,0.00
2023-03-26T04:19:59.302Z,0.00
2023-03-26T04:20:59.296Z,0.00
2023-03-26T04:21:59.273Z,0.00
2023-03-26T04:22:59.276Z,0.00
2023-03-26T04:23:59.304Z,0.00
2023-03-26T04:24:59.258Z,0.00
2023-03-26T04:25:59.262Z,0.00
2023-03-26T04:26:59.249Z,0.00
2023-03-26T04:27:59.245Z,0.00
2023-03-26T04:28:59.237Z,0.00
2023-03-26T04:29:59.253Z,0.00
2023-03-26T04:30:59.285Z,0.00
2023-03-26T04:31:59.230Z,0.00
2023-03-26T04:32:59.249Z,0.00
2023-03-26T04:33:59.215Z,0.00
2023-03-26T04:34:59.303Z,0.00
2023-03-26T04:35:59.250Z,0.00
2023-03-26T04:36:59.228Z,0.00
2023-03-26T04:37:59.200Z,0.00
2023-03-26T04:38:59.179Z,0.00
2023-03-26T04:39:59.215Z,0.00
2023-03-26T04:40:59.196Z,0.00
2023-03-26T04:41:59.175Z,0.00
2023-03-26T04:42:59.165Z,0.00
2023-03-26T04:43:59.165Z,0.00
2023-03-26T04:44:59.158Z,0.00
2023-03-26T04:45:59.175Z,0.00
2023-03-26T04:46:59.199Z,0.00
2023-03-26T04:47:59.195Z,0.00
2023-03-26T04:48:59.117Z,0.00
2023-03-26T04:49:59.133Z,0.00
2023-03-26T04:50:59.129Z,0.00
2023-03-26T04:51:59.137Z,0.00
2023-03-26T04:52:59.116Z,0.00
2023-03-26T04:53:59.104Z,0.00
2023-03-26T04:54:59.131Z,0.00
2023-03-26T04:55:59.078Z,0.00
2023-03-26T04:56:59.117Z,0.00
2023-03-26T04:57:59.138Z,0.00
2023-03-26T04:58:59.065Z,0.00
2023-03-26T04:59:59.064Z,0.00
2023-03-26T05:00:59.085Z,0.00
2023-03-26T05:02:00.146Z,0.00
2023-03-26T05:02:59.035Z,0.00
2023-03-26T05:03:59.088Z,0.00
2023-03-26T05:04:59.025Z,5.62
2023-03-26T05:05:59.090Z,5.62
2023-03-26T05:07:00.028Z,5.62
2023-03-26T05:07:59.050Z,5.62
2023-03-26T05:08:59.017Z,5.62
2023-03-26T05:09:58.998Z,5.62
2023-03-26T05:10:59.003Z,5.62
2023-03-26T05:11:59.017Z,11.25
2023-03-26T05:12:59.832Z,11.25
2023-03-26T05:13:59.028Z,11.25
2023-03-26T05:14:58.987Z,11.25
2023-03-26T05:15:58.999Z,11.25
2023-03-26T05:16:58.964Z,11.25
2023-03-26T05:17:59.055Z,16.88
2023-03-26T05:18:58.976Z,16.88
2023-03-26T05:19:58.979Z,16.88
2023-03-26T05:20:58.949Z,16.88
2023-03-26T05:21:58.920Z,16.88
2023-03-26T05:22:58.924Z,22.50
2023-03-26T05:23:58.925Z,22.50
2023-03-26T05:24:58.917Z,22.50
2023-03-26T05:25:58.912Z,22.50
2023-03-26T05:26:58.928Z,28.12
2023-03-26T05:27:58.900Z,28.12
2023-03-26T05:28:58.907Z,28.12
2023-03-26T05:29:58.940Z,28.12
2023-03-26T05:30:58.887Z,33.75
2023-03-26T05:31:58.876Z,33.75
2023-03-26T05:32:58.973Z,39.38
2023-03-26T05:33:58.853Z,39.38
2023-03-26T05:34:58.853Z,39.38
2023-03-26T05:35:58.930Z,45.00
2023-03-26T05:36:58.835Z,45.00
2023-03-26T05:37:58.830Z,50.62
2023-03-26T05:38:58.854Z,50.62
2023-03-26T05:39:58.829Z,50.62
2023-03-26T05:40:58.829Z,50.62
2023-03-26T05:41:58.808Z,50.62
2023-03-26T05:42:58.827Z,56.25
2023-03-26T05:43:58.801Z,56.25
2023-03-26T05:44:58.794Z,56.25
2023-03-26T05:45:58.798Z,61.88
2023-03-26T05:46:58.785Z,61.88
2023-03-26T05:47:58.813Z,67.50
2023-03-26T05:48:58.769Z,67.50
2023-03-26T05:49:58.757Z,67.50
2023-03-26T05:50:58.764Z,73.12
2023-03-26T05:51:58.771Z,73.12
2023-03-26T05:52:58.758Z,73.12
2023-03-26T05:53:58.747Z,78.75
2023-03-26T05:54:58.771Z,78.75
2023-03-26T05:55:58.766Z,84.38
2023-03-26T05:56:58.778Z,84.38
2023-03-26T05:57:58.709Z,90.00
2023-03-26T05:58:58.719Z,90.00
2023-03-26T05:59:58.718Z,95.62
2023-03-26T06:00:58.720Z,95.62
2023-03-26T06:01:58.691Z,95.62
2023-03-26T06:02:58.848Z,101.25
2023-03-26T06:03:58.774Z,101.25
2023-03-26T06:04:58.701Z,101.25
2023-03-26T06:05:58.694Z,106.88
2023-03-26T06:06:58.694Z,112.50
2023-03-26T06:07:58.672Z,112.50
2023-03-26T06:09:01.548Z,112.50
2023-03-26T06:09:58.639Z,118.12
2023-03-26T06:10:58.644Z,123.75
2023-03-26T06:12:33.673Z,123.75
2023-03-26T06:13:33.654Z,129.38
2023-03-26T06:13:58.670Z,135.00
2023-03-26T06:14:58.616Z,140.62
2023-03-26T06:15:58.710Z,146.25
2023-03-26T06:16:58.611Z,146.25
2023-03-26T06:17:58.633Z,151.88
2023-03-26T06:18:58.676Z,157.50
2023-03-26T06:19:58.592Z,163.12
2023-03-26T06:20:58.605Z,168.75
2023-03-26T06:21:58.557Z,168.75
2023-03-26T06:22:58.574Z,174.38
2023-03-26T06:23:58.571Z,174.38
2023-03-26T06:24:58.578Z,180.00
2023-03-26T06:25:58.521Z,180.00
2023-03-26T06:26:59.532Z,180.00
2023-03-26T06:27:58.543Z,180.00
2023-03-26T06:28:58.597Z,180.00
2023-03-26T06:29:58.552Z,180.00
2023-03-26T06:30:58.524Z,180.00
2023-03-26T06:32:09.201Z,185.62
2023-03-26T06:33:00.560Z,185.62
2023-03-26T06:33:58.530Z,185.62
2023-03-26T06:34:58.576Z,185.62
2023-03-26T06:35:58.540Z,185.62
2023-03-26T06:36:58.503Z,185.62
2023-03-26T06:37:58.609Z,191.25
2023-03-26T06:38:58.470Z,191.25
2023-03-26T06:39:58.480Z,196.88
2023-03-26T06:40:58.464Z,196.88
2023-03-26T06:41:58.450Z,196.88
2023-03-26T06:43:08.342Z,196.88
2023-03-26T06:43:59.452Z,202.50
2023-03-26T06:44:58.434Z,208.12
2023-03-26T06:45:58.501Z,213.75
2023-03-26T06:46:58.472Z,213.75
2023-03-26T06:47:58.416Z,219.38
2023-03-26T06:48:58.429Z,225.00
2023-03-26T06:49:58.460Z,230.62
2023-03-26T06:51:38.559Z,236.25
2023-03-26T06:51:59.540Z,241.88
2023-03-26T06:52:58.459Z,247.50
2023-03-26T06:53:58.467Z,258.75
2023-03-26T06:54:58.439Z,264.38
2023-03-26T06:55:58.436Z,275.62
2023-03-26T06:56:58.434Z,281.25
2023-03-26T06:57:58.422Z,292.50
2023-03-26T06:58:58.475Z,309.38
2023-03-26T06:59:59.611Z,320.62
2023-03-26T07:00:58.497Z,331.88
2023-03-26T07:01:58.395Z,337.50
2023-03-26T07:02:58.352Z,331.88
2023-03-26T07:03:59.828Z,331.88
2023-03-26T07:04:58.309Z,326.25
2023-03-26T07:05:58.320Z,315.00
2023-03-26T07:06:58.293Z,309.38
2023-03-26T07:07:58.332Z,292.50
2023-03-26T07:08:58.278Z,286.88
2023-03-26T07:09:58.271Z,292.50
2023-03-26T07:10:58.309Z,298.12
2023-03-26T07:11:58.304Z,309.38
2023-03-26T07:12:58.274Z,309.38
2023-03-26T07:13:58.250Z,309.38
2023-03-26T07:15:00.351Z,315.00
2023-03-26T07:15:58.319Z,320.62
2023-03-26T07:16:58.242Z,309.38
2023-03-26T07:17:58.277Z,303.75
2023-03-26T07:18:58.233Z,303.75
2023-03-26T07:19:58.228Z,303.75
2023-03-26T07:20:58.200Z,309.38
2023-03-26T07:21:58.197Z,309.38
2023-03-26T07:22:58.196Z,315.00
2023-03-26T07:23:58.213Z,320.62
2023-03-26T07:24:58.166Z,320.62
2023-03-26T07:25:58.198Z,326.25
2023-03-26T07:26:58.149Z,326.25
2023-03-26T07:27:58.189Z,331.88
2023-03-26T07:29:03.626Z,337.50
2023-03-26T07:30:00.137Z,343.12
2023-03-26T07:30:58.123Z,343.12
2023-03-26T07:31:58.165Z,337.50
2023-03-26T07:32:58.149Z,337.50
2023-03-26T07:33:58.116Z,331.88
2023-03-26T07:34:58.088Z,331.88
2023-03-26T07:35:58.202Z,326.25
2023-03-26T07:36:58.099Z,331.88
2023-03-26T07:37:58.074Z,348.75
2023-03-26T07:38:58.095Z,343.12
2023-03-26T07:39:58.819Z,360.00
2023-03-26T07:40:58.061Z,371.25
2023-03-26T07:41:58.079Z,343.12
2023-03-26T07:42:58.060Z,320.62
2023-03-26T07:43:58.074Z,309.38
2023-03-26T07:44:58.017Z,309.38
2023-03-26T07:45:58.048Z,303.75
2023-03-26T07:46:58.033Z,298.12
2023-03-26T07:47:58.073Z,298.12
2023-03-26T07:48:58.013Z,292.50
2023-03-26T07:49:58.036Z,292.50
2023-03-26T07:50:58.343Z,292.50
2023-03-26T07:51:57.984Z,281.25
2023-03-26T07:52:58.045Z,270.00
2023-03-26T07:53:57.963Z,270.00
2023-03-26T07:54:58.147Z,264.38
2023-03-26T07:55:57.979Z,258.75
2023-03-26T07:56:59.141Z,247.50
2023-03-26T07:57:58.932Z,241.88
2023-03-26T07:58:58.925Z,247.50
2023-03-26T07:59:58.903Z,247.50
2023-03-26T08:00:57.950Z,241.88
2023-03-26T08:01:57.971Z,241.88
2023-03-26T08:02:58.036Z,241.88
2023-03-26T08:03:58.039Z,241.88
2023-03-26T08:04:57.970Z,230.62
2023-03-26T08:05:57.891Z,225.00
2023-03-26T08:06:57.931Z,225.00
2023-03-26T08:07:57.919Z,208.12
2023-03-26T08:08:57.875Z,191.25
2023-03-26T08:09:57.864Z,174.38
2023-03-26T08:10:58.061Z,168.75
2023-03-26T08:11:57.878Z,168.75
2023-03-26T08:12:57.862Z,168.75
2023-03-26T08:13:57.857Z,163.12
2023-03-26T08:14:57.897Z,168.75
2023-03-26T08:15:58.550Z,168.75
2023-03-26T08:16:57.882Z,168.75
2023-03-26T08:17:58.057Z,168.75
2023-03-26T08:18:57.807Z,168.75
2023-03-26T08:19:57.803Z,168.75
2023-03-26T08:20:57.785Z,174.38
2023-03-26T08:21:57.797Z,168.75
2023-03-26T08:22:58.354Z,168.75
2023-03-26T08:23:57.811Z,163.12
2023-03-26T08:24:57.772Z,151.88
2023-03-26T08:25:57.767Z,140.62
2023-03-26T08:26:57.809Z,129.38
2023-03-26T08:27:57.786Z,123.75
2023-03-26T08:28:57.772Z,129.38
2023-03-26T08:29:57.789Z,135.00
2023-03-26T08:30:58.043Z,146.25
2023-03-26T08:31:57.707Z,157.50
2023-03-26T08:32:57.741Z,168.75
2023-03-26T08:33:57.690Z,180.00
2023-03-26T08:34:57.695Z,191.25
2023-03-26T08:35:57.789Z,202.50
2023-03-26T08:36:57.684Z,219.38
2023-03-26T08:37:57.674Z,225.00
2023-03-26T08:38:57.652Z,225.00
2023-03-26T08:39:57.665Z,225.00
2023-03-26T08:40:58.937Z,219.38
2023-03-26T08:41:57.664Z,219.38
2023-03-26T08:42:57.667Z,219.38
2023-03-26T08:43:57.678Z,225.00
2023-03-26T08:44:57.622Z,225.00
2023-03-26T08:45:57.620Z,225.00
2023-03-26T08:46:57.608Z,219.38
2023-03-26T08:47:57.607Z,213.75
2023-03-26T08:48:57.636Z,208.12
2023-03-26T08:49:57.607Z,202.50
2023-03-26T08:50:57.802Z,196.88
2023-03-26T08:51:57.658Z,191.25
2023-03-26T08:52:59.102Z,191.25
2023-03-26T08:53:57.587Z,196.88
2023-03-26T08:54:57.549Z,196.88
2023-03-26T08:55:57.541Z,196.88
2023-03-26T08:56:57.668Z,191.25
2023-03-26T08:57:57.525Z,185.62
2023-03-26T08:58:57.606Z,185.62
2023-03-26T08:59:59.695Z,185.62
2023-03-26T09:00:57.608Z,185.62
2023-03-26T09:01:57.550Z,185.62
2023-03-26T09:02:57.553Z,185.62
2023-03-26T09:03:57.510Z,180.00
2023-03-26T09:04:57.602Z,180.00
2023-03-26T09:05:57.470Z,180.00
2023-03-26T09:06:57.503Z,185.62
2023-03-26T09:07:57.493Z,185.62
2023-03-26T09:08:57.446Z,185.62
2023-03-26T09:09:57.477Z,185.62
2023-03-26T09:10:57.563Z,185.62
2023-03-26T09:11:57.459Z,185.62
2023-03-26T09:12:57.491Z,185.62
2023-03-26T09:13:57.515Z,185.62
2023-03-26T09:14:57.437Z,180.00
2023-03-26T09:15:57.506Z,185.62
2023-03-26T09:16:57.397Z,185.62
2023-03-26T09:17:58.144Z,191.25
2023-03-26T09:18:58.593Z,191.25
2023-03-26T09:19:57.382Z,191.25
2023-03-26T09:20:57.745Z,191.25
2023-03-26T09:21:57.391Z,191.25
2023-03-26T09:22:57.409Z,191.25
2023-03-26T09:23:57.392Z,191.25
2023-03-26T09:24:57.357Z,191.25
2023-03-26T09:25:57.364Z,191.25
2023-03-26T09:26:57.364Z,196.88
2023-03-26T09:27:57.356Z,196.88
2023-03-26T09:28:57.330Z,202.50
2023-03-26T09:29:57.369Z,202.50
2023-03-26T09:30:57.405Z,202.50
2023-03-26T09:31:57.377Z,202.50
2023-03-26T09:32:57.314Z,208.12
2023-03-26T09:33:57.352Z,213.75
2023-03-26T09:34:57.300Z,219.38
2023-03-26T09:35:57.368Z,230.62
2023-03-26T09:36:57.342Z,241.88
2023-03-26T09:37:58.089Z,247.50
2023-03-26T09:38:57.396Z,247.50
2023-03-26T09:39:58.364Z,241.88
2023-03-26T09:40:57.444Z,236.25
2023-03-26T09:41:57.302Z,230.62
2023-03-26T09:42:57.262Z,230.62
2023-03-26T09:43:57.235Z,247.50
2023-03-26T09:44:57.228Z,258.75
2023-03-26T09:45:57.252Z,281.25
2023-03-26T09:46:57.225Z,292.50
2023-03-26T09:47:57.206Z,298.12
2023-03-26T09:48:57.248Z,303.75
2023-03-26T09:49:57.181Z,298.12
2023-03-26T09:50:57.505Z,292.50
2023-03-26T09:51:57.180Z,292.50
2023-03-26T09:52:57.304Z,292.50
2023-03-26T09:53:57.174Z,286.88
2023-03-26T09:54:57.164Z,281.25
2023-03-26T09:55:57.312Z,270.00
2023-03-26T09:56:57.257Z,264.38
2023-03-26T09:57:57.175Z,253.12
2023-03-26T09:58:57.172Z,236.25
2023-03-26T09:59:57.152Z,219.38
2023-03-26T10:00:57.444Z,208.12
2023-03-26T10:01:57.158Z,196.88
2023-03-26T10:02:57.168Z,196.88
2023-03-26T10:03:57.190Z,191.25
2023-03-26T10:04:57.104Z,185.62
2023-03-26T10:05:57.072Z,174.38
2023-03-26T10:06:57.085Z,157.50
2023-03-26T10:07:57.062Z,135.00
2023-03-26T10:08:57.076Z,118.12
2023-03-26T10:09:57.058Z,106.88
2023-03-26T10:10:57.255Z,101.25
2023-03-26T10:11:57.204Z,106.88
2023-03-26T10:13:05.042Z,112.50
2023-03-26T10:13:59.075Z,106.88
2023-03-26T10:14:57.007Z,106.88
2023-03-26T10:15:57.113Z,106.88
2023-03-26T10:16:57.119Z,106.88
2023-03-26T10:17:57.018Z,106.88
2023-03-26T10:18:57.052Z,101.25
2023-03-26T10:19:56.990Z,90.00
2023-03-26T10:20:57.082Z,73.12
2023-03-26T10:21:56.965Z,61.88
2023-03-26T10:22:57.041Z,56.25
2023-03-26T10:23:56.993Z,50.62
2023-03-26T10:24:56.975Z,50.62
2023-03-26T10:25:56.919Z,56.25
2023-03-26T10:27:09.861Z,73.12
2023-03-26T10:27:57.918Z,90.00
2023-03-26T10:28:56.924Z,106.88
2023-03-26T10:29:57.098Z,135.00
2023-03-26T10:30:57.278Z,163.12
2023-03-26T10:31:57.000Z,174.38
2023-03-26T10:32:57.098Z,174.38
2023-03-26T10:33:56.876Z,174.38
2023-03-26T10:34:56.884Z,180.00
2023-03-26T10:35:57.807Z,191.25
2023-03-26T10:36:56.859Z,191.25
2023-03-26T10:37:56.894Z,191.25
2023-03-26T10:38:56.831Z,191.25
2023-03-26T10:39:56.895Z,185.62
2023-03-26T10:40:56.973Z,185.62
2023-03-26T10:41:56.826Z,180.00
2023-03-26T10:42:56.892Z,174.38
2023-03-26T10:44:07.379Z,163.12
2023-03-26T10:44:58.802Z,163.12
2023-03-26T10:45:56.836Z,157.50
2023-03-26T10:46:56.794Z,157.50
2023-03-26T10:47:56.815Z,163.12
2023-03-26T10:48:56.768Z,163.12
2023-03-26T10:49:56.877Z,151.88
2023-03-26T10:50:56.945Z,140.62
2023-03-26T10:51:56.764Z,129.38
2023-03-26T10:52:56.764Z,112.50
2023-03-26T10:53:56.760Z,101.25
2023-03-26T10:54:56.752Z,90.00
2023-03-26T10:55:56.730Z,90.00
2023-03-26T10:56:56.792Z,95.62
2023-03-26T10:57:56.804Z,95.62
2023-03-26T10:58:56.698Z,78.75
2023-03-26T10:59:56.773Z,73.12
2023-03-26T11:00:56.876Z,90.00
2023-03-26T11:01:56.722Z,118.12
2023-03-26T11:02:56.706Z,123.75
2023-03-26T11:03:56.693Z,135.00
2023-03-26T11:04:56.721Z,135.00
2023-03-26T11:05:56.732Z,135.00
2023-03-26T11:06:56.636Z,146.25
2023-03-26T11:07:56.774Z,163.12
2023-03-26T11:08:56.691Z,174.38
2023-03-26T11:09:56.769Z,180.00
2023-03-26T11:10:56.817Z,180.00
2023-03-26T11:11:56.633Z,180.00
2023-03-26T11:12:56.679Z,185.62
2023-03-26T11:13:56.844Z,185.62
2023-03-26T11:14:56.712Z,191.25
2023-03-26T11:15:56.593Z,191.25
2023-03-26T11:16:56.568Z,196.88
2023-03-26T11:17:56.623Z,191.25
2023-03-26T11:18:56.570Z,191.25
2023-03-26T11:19:56.570Z,185.62
2023-03-26T11:20:56.785Z,180.00
2023-03-26T11:21:57.569Z,180.00
2023-03-26T11:22:56.547Z,174.38
2023-03-26T11:24:05.394Z,168.75
2023-03-26T11:24:57.543Z,168.75
2023-03-26T11:25:56.571Z,163.12
2023-03-26T11:26:56.503Z,157.50
2023-03-26T11:27:56.487Z,151.88
2023-03-26T11:29:04.127Z,140.62
2023-03-26T11:29:58.432Z,123.75
2023-03-26T11:30:56.714Z,106.88
2023-03-26T11:31:56.557Z,95.62
2023-03-26T11:32:57.512Z,90.00
2023-03-26T11:33:56.584Z,101.25
2023-03-26T11:34:56.464Z,106.88
2023-03-26T11:35:56.461Z,112.50
2023-03-26T11:36:56.469Z,118.12
2023-03-26T11:37:56.433Z,118.12
2023-03-26T11:38:56.435Z,118.12
2023-03-26T11:39:56.807Z,112.50
2023-03-26T11:40:58.043Z,112.50
2023-03-26T11:41:56.750Z,106.88
2023-03-26T11:42:56.472Z,106.88
2023-03-26T11:43:56.456Z,95.62
2023-03-26T11:44:56.500Z,95.62
2023-03-26T11:45:56.528Z,95.62
2023-03-26T11:46:56.517Z,101.25
2023-03-26T11:47:56.432Z,101.25
2023-03-26T11:48:56.361Z,106.88
2023-03-26T11:49:56.407Z,101.25
2023-03-26T11:50:56.607Z,95.62
2023-03-26T11:51:56.359Z,95.62
2023-03-26T11:52:56.349Z,95.62
2023-03-26T11:53:56.341Z,95.62
2023-03-26T11:54:56.324Z,90.00
2023-03-26T11:55:56.295Z,90.00
2023-03-26T11:57:05.018Z,90.00
2023-03-26T11:57:57.395Z,112.50
2023-03-26T11:58:56.280Z,129.38
2023-03-26T11:59:57.870Z,135.00
2023-03-26T12:00:57.496Z,135.00
2023-03-26T12:01:56.755Z,135.00
2023-03-26T12:02:56.290Z,135.00
2023-03-26T12:03:57.263Z,135.00
2023-03-26T12:04:56.285Z,135.00
2023-03-26T12:05:56.269Z,135.00
2023-03-26T12:06:56.267Z,135.00
2023-03-26T12:07:56.297Z,129.38
2023-03-26T12:08:56.285Z,129.38
2023-03-26T12:09:56.281Z,129.38
2023-03-26T12:10:56.367Z,129.38
2023-03-26T12:11:56.218Z,129.38
2023-03-26T12:12:56.227Z,129.38
2023-03-26T12:13:56.348Z,129.38
2023-03-26T12:14:56.283Z,123.75
2023-03-26T12:15:56.188Z,123.75
2023-03-26T12:16:57.187Z,123.75
2023-03-26T12:17:57.271Z,123.75
2023-03-26T12:18:56.190Z,123.75
2023-03-26T12:19:56.168Z,123.75
2023-03-26T12:20:56.234Z,123.75
2023-03-26T12:21:56.154Z,123.75
2023-03-26T12:22:56.128Z,123.75
2023-03-26T12:23:56.304Z,123.75
2023-03-26T12:24:56.142Z,123.75
2023-03-26T12:25:56.093Z,123.75
2023-03-26T12:26:56.104Z,123.75
2023-03-26T12:27:56.091Z,123.75
2023-03-26T12:28:56.145Z,123.75
2023-03-26T12:29:56.112Z,118.12
2023-03-26T12:30:56.198Z,118.12
2023-03-26T12:31:56.182Z,118.12
2023-03-26T12:32:56.080Z,118.12
2023-03-26T12:33:58.084Z,118.12
2023-03-26T12:34:56.075Z,129.38
2023-03-26T12:35:56.116Z,140.62
2023-03-26T12:36:56.033Z,151.88
2023-03-26T12:37:56.101Z,163.12
2023-03-26T12:40:06.970Z,174.38
2023-03-26T12:40:09.298Z,185.62
2023-03-26T12:40:57.044Z,191.25
2023-03-26T12:44:43.806Z,191.25
2023-03-26T12:44:47.905Z,196.88
2023-03-26T12:44:55.848Z,196.88
2023-03-26T12:44:59.148Z,196.88
2023-03-26T12:46:03.751Z,196.88
2023-03-26T12:47:58.312Z,196.88
2023-03-26T12:48:03.772Z,196.88
2023-03-26T12:48:58.108Z,202.50
2023-03-26T12:49:55.957Z,213.75